sensor_id;sensor_type;location;lat;lon;timestamp;temperature;humidity
17154;DHT22;8692;52.164;7.558;2022-09-09T00:01:07;17.00;99.90
17154;DHT22;8692;52.164;7.558;2022-09-09T00:03:44;17.00;99.90
17154;DHT22;8692;52.164;7.558;2022-09-09T00:06:21;17.00;99.90
17154;DHT22;8692;52.164;7.558;2022-09-09T00:08:59;17.00;99.90
17154;DHT22;8692;52.164;7.558;2022-09-09T00:11:32;17.00;99.90
17154;DHT22;8692;52.164;7.558;2022-09-09T00:14:12;17.00;99.90
17154;DHT22;8692;52.164;7.558;2022-09-09T00:16:47;17.10;99.90
17154;DHT22;8692;52.164;7.558;2022-09-09T00:19:23;17.00;99.90
17154;DHT22;8692;52.164;7.558;2022-09-09T00:22:00;17.10;99.90
17154;DHT22;8692;52.164;7.558;2022-09-09T00:24:40;17.10;99.90
17154;DHT22;8692;52.164;7.558;2022-09-09T00:27:19;17.10;99.90
17154;DHT22;8692;52.164;7.558;2022-09-09T00:29:53;17.10;99.90
17154;DHT22;8692;52.164;7.558;2022-09-09T00:32:28;17.10;99.90
17154;DHT22;8692;52.164;7.558;2022-09-09T00:35:03;17.10;99.90
17154;DHT22;8692;52.164;7.558;2022-09-09T00:37:38;17.10;99.90
17154;DHT22;8692;52.164;7.558;2022-09-09T00:40:18;17.10;99.90
17154;DHT22;8692;52.164;7.558;2022-09-09T00:43:04;17.10;99.90
17154;DHT22;8692;52.164;7.558;2022-09-09T00:45:54;17.10;99.90
17154;DHT22;8692;52.164;7.558;2022-09-09T00:48:30;17.10;99.90
17154;DHT22;8692;52.164;7.558;2022-09-09T00:51:11;17.10;99.90
17154;DHT22;8692;52.164;7.558;2022-09-09T00:54:05;17.10;99.90
17154;DHT22;8692;52.164;7.558;2022-09-09T00:56:43;17.10;99.90
17154;DHT22;8692;52.164;7.558;2022-09-09T00:59:23;17.10;99.90
17154;DHT22;8692;52.164;7.558;2022-09-09T01:01:54;17.10;99.90
17154;DHT22;8692;52.164;7.558;2022-09-09T01:04:28;17.10;99.90
17154;DHT22;8692;52.164;7.558;2022-09-09T01:07:05;17.00;99.90
17154;DHT22;8692;52.164;7.558;2022-09-09T01:09:45;17.00;99.90
17154;DHT22;8692;52.164;7.558;2022-09-09T01:12:25;17.00;99.90
17154;DHT22;8692;52.164;7.558;2022-09-09T01:15:03;17.00;99.90
17154;DHT22;8692;52.164;7.558;2022-09-09T01:17:36;17.00;99.90
17154;DHT22;8692;52.164;7.558;2022-09-09T01:20:13;17.10;99.90
17154;DHT22;8692;52.164;7.558;2022-09-09T01:23:10;17.10;99.90
17154;DHT22;8692;52.164;7.558;2022-09-09T01:26:13;17.10;99.90
17154;DHT22;8692;52.164;7.558;2022-09-09T01:28:44;17.10;99.90
17154;DHT22;8692;52.164;7.558;2022-09-09T01:31:19;17.10;99.90
17154;DHT22;8692;52.164;7.558;2022-09-09T01:33:48;17.10;99.90
17154;DHT22;8692;52.164;7.558;2022-09-09T01:36:24;17.10;99.90
17154;DHT22;8692;52.164;7.558;2022-09-09T01:38:54;17.10;99.90
17154;DHT22;8692;52.164;7.558;2022-09-09T01:41:25;17.10;99.90
17154;DHT22;8692;52.164;7.558;2022-09-09T01:44:01;17.10;99.90
17154;DHT22;8692;52.164;7.558;2022-09-09T01:46:32;17.10;99.90
17154;DHT22;8692;52.164;7.558;2022-09-09T01:49:03;17.00;99.90
17154;DHT22;8692;52.164;7.558;2022-09-09T01:51:34;17.00;99.90
17154;DHT22;8692;52.164;7.558;2022-09-09T01:54:06;17.00;99.90
17154;DHT22;8692;52.164;7.558;2022-09-09T01:56:43;16.90;99.90
17154;DHT22;8692;52.164;7.558;2022-09-09T01:59:24;16.90;99.90
17154;DHT22;8692;52.164;7.558;2022-09-09T02:05:05;16.90;99.90
17154;DHT22;8692;52.164;7.558;2022-09-09T02:06:22;16.90;99.90
17154;DHT22;8692;52.164;7.558;2022-09-09T02:09:00;16.80;99.90
17154;DHT22;8692;52.164;7.558;2022-09-09T02:11:30;16.80;99.90
17154;DHT22;8692;52.164;7.558;2022-09-09T02:14:21;16.80;99.90
17154;DHT22;8692;52.164;7.558;2022-09-09T02:16:56;16.80;99.90
17154;DHT22;8692;52.164;7.558;2022-09-09T02:19:41;16.80;99.90
17154;DHT22;8692;52.164;7.558;2022-09-09T02:22:24;16.80;99.90
17154;DHT22;8692;52.164;7.558;2022-09-09T02:24:59;16.70;99.90
17154;DHT22;8692;52.164;7.558;2022-09-09T02:27:30;16.70;99.90
17154;DHT22;8692;52.164;7.558;2022-09-09T02:30:00;16.70;99.90
17154;DHT22;8692;52.164;7.558;2022-09-09T02:32:46;16.60;99.90
17154;DHT22;8692;52.164;7.558;2022-09-09T02:35:19;16.60;99.90
17154;DHT22;8692;52.164;7.558;2022-09-09T02:37:50;16.60;99.90
17154;DHT22;8692;52.164;7.558;2022-09-09T02:40:19;16.50;99.90
17154;DHT22;8692;52.164;7.558;2022-09-09T02:42:55;16.50;99.90
17154;DHT22;8692;52.164;7.558;2022-09-09T02:45:31;16.40;99.90
17154;DHT22;8692;52.164;7.558;2022-09-09T02:48:09;16.40;99.90
17154;DHT22;8692;52.164;7.558;2022-09-09T02:50:54;16.50;99.90
17154;DHT22;8692;52.164;7.558;2022-09-09T02:53:35;16.40;99.90
17154;DHT22;8692;52.164;7.558;2022-09-09T02:56:07;16.50;99.90
17154;DHT22;8692;52.164;7.558;2022-09-09T02:58:41;16.40;99.90
17154;DHT22;8692;52.164;7.558;2022-09-09T03:01:12;16.40;99.90
17154;DHT22;8692;52.164;7.558;2022-09-09T03:03:41;16.40;99.90
17154;DHT22;8692;52.164;7.558;2022-09-09T03:06:14;16.50;99.90
17154;DHT22;8692;52.164;7.558;2022-09-09T03:08:47;16.40;99.90
17154;DHT22;8692;52.164;7.558;2022-09-09T03:11:21;16.40;99.90
17154;DHT22;8692;52.164;7.558;2022-09-09T03:13:49;16.40;99.90
17154;DHT22;8692;52.164;7.558;2022-09-09T03:16:21;16.50;99.90
17154;DHT22;8692;52.164;7.558;2022-09-09T03:18:53;16.50;99.90
17154;DHT22;8692;52.164;7.558;2022-09-09T03:21:22;16.40;99.90
17154;DHT22;8692;52.164;7.558;2022-09-09T03:23:50;16.50;99.90
17154;DHT22;8692;52.164;7.558;2022-09-09T03:26:18;16.50;99.90
17154;DHT22;8692;52.164;7.558;2022-09-09T03:28:47;16.50;99.90
17154;DHT22;8692;52.164;7.558;2022-09-09T03:31:22;16.50;99.90
17154;DHT22;8692;52.164;7.558;2022-09-09T03:33:51;16.40;99.90
17154;DHT22;8692;52.164;7.558;2022-09-09T03:36:20;16.40;99.90
17154;DHT22;8692;52.164;7.558;2022-09-09T03:38:50;16.40;99.90
17154;DHT22;8692;52.164;7.558;2022-09-09T03:41:18;16.40;99.90
17154;DHT22;8692;52.164;7.558;2022-09-09T03:43:50;16.50;99.90
17154;DHT22;8692;52.164;7.558;2022-09-09T03:46:19;16.50;99.90
17154;DHT22;8692;52.164;7.558;2022-09-09T03:48:49;16.50;99.90
17154;DHT22;8692;52.164;7.558;2022-09-09T03:51:17;16.50;99.90
17154;DHT22;8692;52.164;7.558;2022-09-09T03:53:46;16.50;99.90
17154;DHT22;8692;52.164;7.558;2022-09-09T03:56:16;16.50;99.90
17154;DHT22;8692;52.164;7.558;2022-09-09T03:58:45;16.50;99.90
17154;DHT22;8692;52.164;7.558;2022-09-09T04:01:14;16.50;99.90
17154;DHT22;8692;52.164;7.558;2022-09-09T04:03:44;16.50;99.90
17154;DHT22;8692;52.164;7.558;2022-09-09T04:06:14;16.40;99.90
17154;DHT22;8692;52.164;7.558;2022-09-09T04:08:47;16.40;99.90
17154;DHT22;8692;52.164;7.558;2022-09-09T04:11:16;16.40;99.90
17154;DHT22;8692;52.164;7.558;2022-09-09T04:13:49;16.40;99.90
17154;DHT22;8692;52.164;7.558;2022-09-09T04:16:18;16.30;99.90
17154;DHT22;8692;52.164;7.558;2022-09-09T04:18:49;16.30;99.90
17154;DHT22;8692;52.164;7.558;2022-09-09T04:21:19;16.30;99.90
17154;DHT22;8692;52.164;7.558;2022-09-09T04:23:48;16.30;99.90
17154;DHT22;8692;52.164;7.558;2022-09-09T04:26:16;16.30;99.90
17154;DHT22;8692;52.164;7.558;2022-09-09T04:28:47;16.30;99.90
17154;DHT22;8692;52.164;7.558;2022-09-09T04:31:19;16.30;99.90
17154;DHT22;8692;52.164;7.558;2022-09-09T04:33:53;16.30;99.90
17154;DHT22;8692;52.164;7.558;2022-09-09T04:36:23;16.30;99.90
17154;DHT22;8692;52.164;7.558;2022-09-09T04:38:55;16.30;99.90
17154;DHT22;8692;52.164;7.558;2022-09-09T04:41:24;16.30;99.90
17154;DHT22;8692;52.164;7.558;2022-09-09T04:43:53;16.30;99.90
17154;DHT22;8692;52.164;7.558;2022-09-09T04:46:22;16.30;99.90
17154;DHT22;8692;52.164;7.558;2022-09-09T04:48:53;16.30;99.90
17154;DHT22;8692;52.164;7.558;2022-09-09T04:51:27;16.30;99.90
17154;DHT22;8692;52.164;7.558;2022-09-09T04:53:58;16.30;99.90
17154;DHT22;8692;52.164;7.558;2022-09-09T04:56:26;16.30;99.90
17154;DHT22;8692;52.164;7.558;2022-09-09T04:58:57;16.30;99.90
17154;DHT22;8692;52.164;7.558;2022-09-09T05:01:35;16.20;99.90
17154;DHT22;8692;52.164;7.558;2022-09-09T05:04:04;16.20;99.90
17154;DHT22;8692;52.164;7.558;2022-09-09T05:06:36;16.20;99.90
17154;DHT22;8692;52.164;7.558;2022-09-09T05:09:05;16.20;99.90
17154;DHT22;8692;52.164;7.558;2022-09-09T05:11:33;16.20;99.90
17154;DHT22;8692;52.164;7.558;2022-09-09T05:14:16;16.20;99.90
17154;DHT22;8692;52.164;7.558;2022-09-09T05:16:44;16.20;99.90
17154;DHT22;8692;52.164;7.558;2022-09-09T05:19:14;16.20;99.90
17154;DHT22;8692;52.164;7.558;2022-09-09T05:21:51;16.20;99.90
17154;DHT22;8692;52.164;7.558;2022-09-09T05:24:29;16.20;99.90
17154;DHT22;8692;52.164;7.558;2022-09-09T05:27:03;16.20;99.90
17154;DHT22;8692;52.164;7.558;2022-09-09T05:29:32;16.20;99.90
17154;DHT22;8692;52.164;7.558;2022-09-09T05:32:03;16.20;99.90
17154;DHT22;8692;52.164;7.558;2022-09-09T05:34:34;16.20;99.90
17154;DHT22;8692;52.164;7.558;2022-09-09T05:37:05;16.20;99.90
17154;DHT22;8692;52.164;7.558;2022-09-09T05:39:36;16.20;99.90
17154;DHT22;8692;52.164;7.558;2022-09-09T05:42:05;16.20;99.90
17154;DHT22;8692;52.164;7.558;2022-09-09T05:44:34;16.30;99.90
17154;DHT22;8692;52.164;7.558;2022-09-09T05:47:04;16.30;99.90
17154;DHT22;8692;52.164;7.558;2022-09-09T05:49:34;16.30;99.90
17154;DHT22;8692;52.164;7.558;2022-09-09T05:52:02;16.30;99.90
17154;DHT22;8692;52.164;7.558;2022-09-09T05:54:32;16.30;99.90
17154;DHT22;8692;52.164;7.558;2022-09-09T05:57:01;16.30;99.90
17154;DHT22;8692;52.164;7.558;2022-09-09T05:59:30;16.30;99.90
17154;DHT22;8692;52.164;7.558;2022-09-09T06:02:00;16.30;99.90
17154;DHT22;8692;52.164;7.558;2022-09-09T06:04:33;16.30;99.90
17154;DHT22;8692;52.164;7.558;2022-09-09T06:07:02;16.30;99.90
17154;DHT22;8692;52.164;7.558;2022-09-09T06:09:33;16.30;99.90
17154;DHT22;8692;52.164;7.558;2022-09-09T06:12:02;16.30;99.90
17154;DHT22;8692;52.164;7.558;2022-09-09T06:14:33;16.30;99.90
17154;DHT22;8692;52.164;7.558;2022-09-09T06:17:02;16.30;99.90
17154;DHT22;8692;52.164;7.558;2022-09-09T06:19:30;16.30;99.90
17154;DHT22;8692;52.164;7.558;2022-09-09T06:21:59;16.30;99.90
17154;DHT22;8692;52.164;7.558;2022-09-09T06:24:30;16.30;99.90
17154;DHT22;8692;52.164;7.558;2022-09-09T06:27:02;16.40;99.90
17154;DHT22;8692;52.164;7.558;2022-09-09T06:29:35;16.40;99.90
17154;DHT22;8692;52.164;7.558;2022-09-09T06:32:04;16.40;99.90
17154;DHT22;8692;52.164;7.558;2022-09-09T06:34:32;16.50;99.90
17154;DHT22;8692;52.164;7.558;2022-09-09T06:37:02;16.50;99.90
17154;DHT22;8692;52.164;7.558;2022-09-09T06:39:38;16.50;99.90
17154;DHT22;8692;52.164;7.558;2022-09-09T06:42:08;16.50;99.90
17154;DHT22;8692;52.164;7.558;2022-09-09T06:45:02;16.60;99.90
17154;DHT22;8692;52.164;7.558;2022-09-09T06:47:48;16.60;99.90
17154;DHT22;8692;52.164;7.558;2022-09-09T06:50:18;16.60;99.90
17154;DHT22;8692;52.164;7.558;2022-09-09T06:52:48;16.70;99.90
17154;DHT22;8692;52.164;7.558;2022-09-09T06:55:16;16.70;99.90
17154;DHT22;8692;52.164;7.558;2022-09-09T06:57:46;16.70;99.90
17154;DHT22;8692;52.164;7.558;2022-09-09T07:00:20;16.80;99.90
17154;DHT22;8692;52.164;7.558;2022-09-09T07:02:51;16.90;99.90
17154;DHT22;8692;52.164;7.558;2022-09-09T07:05:19;16.90;99.90
17154;DHT22;8692;52.164;7.558;2022-09-09T07:07:48;16.90;99.90
17154;DHT22;8692;52.164;7.558;2022-09-09T07:10:18;17.00;99.90
17154;DHT22;8692;52.164;7.558;2022-09-09T07:12:51;17.00;99.90
17154;DHT22;8692;52.164;7.558;2022-09-09T07:15:22;17.00;99.90
17154;DHT22;8692;52.164;7.558;2022-09-09T07:17:50;17.10;99.90
17154;DHT22;8692;52.164;7.558;2022-09-09T07:20:22;17.10;99.90
17154;DHT22;8692;52.164;7.558;2022-09-09T07:22:54;17.10;99.90
17154;DHT22;8692;52.164;7.558;2022-09-09T07:25:25;17.20;99.90
17154;DHT22;8692;52.164;7.558;2022-09-09T07:27:59;17.20;99.90
17154;DHT22;8692;52.164;7.558;2022-09-09T07:30:27;17.20;99.90
17154;DHT22;8692;52.164;7.558;2022-09-09T07:32:59;17.20;99.90
17154;DHT22;8692;52.164;7.558;2022-09-09T07:35:29;17.30;99.90
17154;DHT22;8692;52.164;7.558;2022-09-09T07:37:57;17.30;99.90
17154;DHT22;8692;52.164;7.558;2022-09-09T07:40:26;17.30;99.90
17154;DHT22;8692;52.164;7.558;2022-09-09T07:42:54;17.30;99.90
17154;DHT22;8692;52.164;7.558;2022-09-09T07:45:26;17.30;99.90
17154;DHT22;8692;52.164;7.558;2022-09-09T07:47:58;17.30;99.90
17154;DHT22;8692;52.164;7.558;2022-09-09T07:50:26;17.40;99.90
17154;DHT22;8692;52.164;7.558;2022-09-09T07:52:54;17.40;99.90
17154;DHT22;8692;52.164;7.558;2022-09-09T07:55:24;17.50;99.90
17154;DHT22;8692;52.164;7.558;2022-09-09T07:57:53;17.50;99.90
17154;DHT22;8692;52.164;7.558;2022-09-09T08:00:23;17.60;99.90
17154;DHT22;8692;52.164;7.558;2022-09-09T08:02:57;17.70;99.90
17154;DHT22;8692;52.164;7.558;2022-09-09T08:05:25;17.70;99.90
17154;DHT22;8692;52.164;7.558;2022-09-09T08:07:54;17.70;99.90
17154;DHT22;8692;52.164;7.558;2022-09-09T08:10:24;17.70;99.90
17154;DHT22;8692;52.164;7.558;2022-09-09T08:12:54;17.80;99.90
17154;DHT22;8692;52.164;7.558;2022-09-09T08:15:46;17.90;99.90
17154;DHT22;8692;52.164;7.558;2022-09-09T08:18:15;18.00;99.90
17154;DHT22;8692;52.164;7.558;2022-09-09T08:20:44;18.10;99.90
17154;DHT22;8692;52.164;7.558;2022-09-09T08:23:14;18.10;99.90
17154;DHT22;8692;52.164;7.558;2022-09-09T08:25:42;18.20;99.90
17154;DHT22;8692;52.164;7.558;2022-09-09T08:28:12;18.30;99.90
17154;DHT22;8692;52.164;7.558;2022-09-09T08:30:43;18.30;99.90
17154;DHT22;8692;52.164;7.558;2022-09-09T08:33:14;18.40;99.90
17154;DHT22;8692;52.164;7.558;2022-09-09T08:35:50;18.40;99.90
17154;DHT22;8692;52.164;7.558;2022-09-09T08:38:22;18.40;99.90
17154;DHT22;8692;52.164;7.558;2022-09-09T08:40:53;18.40;99.90
17154;DHT22;8692;52.164;7.558;2022-09-09T08:43:28;18.40;99.90
17154;DHT22;8692;52.164;7.558;2022-09-09T08:46:07;18.40;99.90
17154;DHT22;8692;52.164;7.558;2022-09-09T08:48:47;18.50;99.90
17154;DHT22;8692;52.164;7.558;2022-09-09T08:51:21;18.50;99.90
17154;DHT22;8692;52.164;7.558;2022-09-09T08:53:51;18.60;99.90
17154;DHT22;8692;52.164;7.558;2022-09-09T08:56:26;18.70;99.90
17154;DHT22;8692;52.164;7.558;2022-09-09T08:59:00;18.80;99.90
17154;DHT22;8692;52.164;7.558;2022-09-09T09:01:49;18.90;99.90
17154;DHT22;8692;52.164;7.558;2022-09-09T09:04:40;18.90;99.90
17154;DHT22;8692;52.164;7.558;2022-09-09T09:07:21;19.00;99.90
17154;DHT22;8692;52.164;7.558;2022-09-09T09:10:03;19.00;99.90
17154;DHT22;8692;52.164;7.558;2022-09-09T09:12:50;19.00;99.90
17154;DHT22;8692;52.164;7.558;2022-09-09T09:15:24;19.10;99.90
17154;DHT22;8692;52.164;7.558;2022-09-09T09:18:00;19.10;99.90
17154;DHT22;8692;52.164;7.558;2022-09-09T09:20:34;19.10;99.90
17154;DHT22;8692;52.164;7.558;2022-09-09T09:23:06;19.20;99.90
17154;DHT22;8692;52.164;7.558;2022-09-09T09:25:42;19.20;99.90
17154;DHT22;8692;52.164;7.558;2022-09-09T09:28:15;19.30;99.90
17154;DHT22;8692;52.164;7.558;2022-09-09T09:30:51;19.40;99.90
17154;DHT22;8692;52.164;7.558;2022-09-09T09:33:25;19.40;99.90
17154;DHT22;8692;52.164;7.558;2022-09-09T09:36:00;19.40;99.90
17154;DHT22;8692;52.164;7.558;2022-09-09T09:38:30;19.40;99.90
17154;DHT22;8692;52.164;7.558;2022-09-09T09:41:29;19.40;99.90
17154;DHT22;8692;52.164;7.558;2022-09-09T09:44:01;19.40;99.90
17154;DHT22;8692;52.164;7.558;2022-09-09T09:46:31;19.50;99.90
17154;DHT22;8692;52.164;7.558;2022-09-09T09:49:09;19.70;99.90
17154;DHT22;8692;52.164;7.558;2022-09-09T09:51:41;19.80;99.90
17154;DHT22;8692;52.164;7.558;2022-09-09T09:54:16;19.90;99.90
17154;DHT22;8692;52.164;7.558;2022-09-09T09:56:50;20.00;99.90
17154;DHT22;8692;52.164;7.558;2022-09-09T09:59:24;20.10;99.90
17154;DHT22;8692;52.164;7.558;2022-09-09T10:02:21;20.20;99.90
17154;DHT22;8692;52.164;7.558;2022-09-09T10:05:02;20.20;99.90
17154;DHT22;8692;52.164;7.558;2022-09-09T10:07:34;20.20;99.90
17154;DHT22;8692;52.164;7.558;2022-09-09T10:10:05;20.10;99.90
17154;DHT22;8692;52.164;7.558;2022-09-09T10:12:41;20.10;99.90
17154;DHT22;8692;52.164;7.558;2022-09-09T10:15:29;20.20;99.90
17154;DHT22;8692;52.164;7.558;2022-09-09T10:18:08;20.20;99.90
17154;DHT22;8692;52.164;7.558;2022-09-09T10:20:48;20.10;99.90
17154;DHT22;8692;52.164;7.558;2022-09-09T10:23:33;20.00;99.90
17154;DHT22;8692;52.164;7.558;2022-09-09T10:26:19;20.10;99.90
17154;DHT22;8692;52.164;7.558;2022-09-09T10:29:18;20.10;99.90
17154;DHT22;8692;52.164;7.558;2022-09-09T10:31:57;20.20;99.90
17154;DHT22;8692;52.164;7.558;2022-09-09T10:34:55;20.30;99.90
17154;DHT22;8692;52.164;7.558;2022-09-09T10:37:36;20.30;99.90
17154;DHT22;8692;52.164;7.558;2022-09-09T10:40:18;20.30;99.90
17154;DHT22;8692;52.164;7.558;2022-09-09T10:42:47;20.30;99.90
17154;DHT22;8692;52.164;7.558;2022-09-09T10:45:18;20.30;99.90
17154;DHT22;8692;52.164;7.558;2022-09-09T10:48:02;20.30;99.90
17154;DHT22;8692;52.164;7.558;2022-09-09T10:50:45;20.30;99.90
17154;DHT22;8692;52.164;7.558;2022-09-09T10:53:41;20.20;99.90
17154;DHT22;8692;52.164;7.558;2022-09-09T10:56:16;20.30;99.90
17154;DHT22;8692;52.164;7.558;2022-09-09T10:58:49;20.20;99.90
17154;DHT22;8692;52.164;7.558;2022-09-09T11:01:21;20.20;99.90
17154;DHT22;8692;52.164;7.558;2022-09-09T11:03:54;20.20;99.90
17154;DHT22;8692;52.164;7.558;2022-09-09T11:06:28;20.30;99.90
17154;DHT22;8692;52.164;7.558;2022-09-09T11:09:01;20.40;99.90
17154;DHT22;8692;52.164;7.558;2022-09-09T11:11:35;20.60;99.90
17154;DHT22;8692;52.164;7.558;2022-09-09T11:14:11;20.70;99.90
17154;DHT22;8692;52.164;7.558;2022-09-09T11:16:44;20.80;99.90
17154;DHT22;8692;52.164;7.558;2022-09-09T11:19:22;20.90;99.90
17154;DHT22;8692;52.164;7.558;2022-09-09T11:21:53;21.00;99.90
17154;DHT22;8692;52.164;7.558;2022-09-09T11:24:25;21.20;99.90
17154;DHT22;8692;52.164;7.558;2022-09-09T11:27:02;21.20;98.90
17154;DHT22;8692;52.164;7.558;2022-09-09T11:30:02;21.20;99.40
17154;DHT22;8692;52.164;7.558;2022-09-09T11:32:47;21.20;99.90
17154;DHT22;8692;52.164;7.558;2022-09-09T11:35:33;21.30;99.70
17154;DHT22;8692;52.164;7.558;2022-09-09T11:38:19;21.30;99.80
17154;DHT22;8692;52.164;7.558;2022-09-09T11:40:55;21.40;99.90
17154;DHT22;8692;52.164;7.558;2022-09-09T11:43:30;21.40;99.90
17154;DHT22;8692;52.164;7.558;2022-09-09T11:46:01;21.50;97.20
17154;DHT22;8692;52.164;7.558;2022-09-09T11:48:33;21.50;95.80
17154;DHT22;8692;52.164;7.558;2022-09-09T11:51:05;21.50;95.70
17154;DHT22;8692;52.164;7.558;2022-09-09T11:53:48;21.50;96.80
17154;DHT22;8692;52.164;7.558;2022-09-09T11:56:25;21.60;95.70
17154;DHT22;8692;52.164;7.558;2022-09-09T11:58:58;21.60;96.20
17154;DHT22;8692;52.164;7.558;2022-09-09T12:01:35;21.70;95.20
17154;DHT22;8692;52.164;7.558;2022-09-09T12:04:16;21.80;96.30
17154;DHT22;8692;52.164;7.558;2022-09-09T12:06:51;21.90;96.10
17154;DHT22;8692;52.164;7.558;2022-09-09T12:09:27;21.90;94.10
17154;DHT22;8692;52.164;7.558;2022-09-09T12:12:26;22.10;95.30
17154;DHT22;8692;52.164;7.558;2022-09-09T12:15:02;22.20;91.50
17154;DHT22;8692;52.164;7.558;2022-09-09T12:17:41;22.30;92.30
17154;DHT22;8692;52.164;7.558;2022-09-09T12:20:15;22.40;91.80
17154;DHT22;8692;52.164;7.558;2022-09-09T12:22:56;22.40;91.00
17154;DHT22;8692;52.164;7.558;2022-09-09T12:25:46;22.40;92.40
17154;DHT22;8692;52.164;7.558;2022-09-09T12:28:18;22.60;92.20
17154;DHT22;8692;52.164;7.558;2022-09-09T12:30:55;22.60;87.00
17154;DHT22;8692;52.164;7.558;2022-09-09T12:33:24;22.50;87.00
17154;DHT22;8692;52.164;7.558;2022-09-09T12:35:55;22.40;84.40
17154;DHT22;8692;52.164;7.558;2022-09-09T12:38:32;22.30;85.80
17154;DHT22;8692;52.164;7.558;2022-09-09T12:41:02;22.20;84.90
17154;DHT22;8692;52.164;7.558;2022-09-09T12:43:33;22.10;87.70
17154;DHT22;8692;52.164;7.558;2022-09-09T12:46:08;22.00;88.10
17154;DHT22;8692;52.164;7.558;2022-09-09T12:48:41;22.00;88.10
17154;DHT22;8692;52.164;7.558;2022-09-09T12:51:19;22.00;88.20
17154;DHT22;8692;52.164;7.558;2022-09-09T12:53:49;21.90;88.50
17154;DHT22;8692;52.164;7.558;2022-09-09T12:56:21;21.90;89.70
17154;DHT22;8692;52.164;7.558;2022-09-09T12:58:52;21.90;88.50
17154;DHT22;8692;52.164;7.558;2022-09-09T13:01:23;22.00;90.50
17154;DHT22;8692;52.164;7.558;2022-09-09T13:03:52;22.10;90.40
17154;DHT22;8692;52.164;7.558;2022-09-09T13:06:25;22.10;91.90
17154;DHT22;8692;52.164;7.558;2022-09-09T13:08:56;22.10;89.80
17154;DHT22;8692;52.164;7.558;2022-09-09T13:11:29;22.10;90.50
17154;DHT22;8692;52.164;7.558;2022-09-09T13:14:01;22.10;90.10
17154;DHT22;8692;52.164;7.558;2022-09-09T13:16:33;22.00;88.20
17154;DHT22;8692;52.164;7.558;2022-09-09T13:19:09;21.90;89.10
17154;DHT22;8692;52.164;7.558;2022-09-09T13:21:44;21.90;90.10
17154;DHT22;8692;52.164;7.558;2022-09-09T13:24:26;21.90;91.50
17154;DHT22;8692;52.164;7.558;2022-09-09T13:26:59;21.90;90.40
17154;DHT22;8692;52.164;7.558;2022-09-09T13:29:29;22.00;90.50
17154;DHT22;8692;52.164;7.558;2022-09-09T13:32:05;22.10;90.00
17154;DHT22;8692;52.164;7.558;2022-09-09T13:34:35;22.10;91.20
17154;DHT22;8692;52.164;7.558;2022-09-09T13:37:06;22.20;91.10
17154;DHT22;8692;52.164;7.558;2022-09-09T13:39:51;22.20;90.50
17154;DHT22;8692;52.164;7.558;2022-09-09T13:42:24;22.20;90.40
17154;DHT22;8692;52.164;7.558;2022-09-09T13:44:54;22.20;88.60
17154;DHT22;8692;52.164;7.558;2022-09-09T13:47:30;22.20;87.70
17154;DHT22;8692;52.164;7.558;2022-09-09T13:50:15;22.10;87.60
17154;DHT22;8692;52.164;7.558;2022-09-09T13:52:46;22.00;88.50
17154;DHT22;8692;52.164;7.558;2022-09-09T13:55:16;21.80;91.20
17154;DHT22;8692;52.164;7.558;2022-09-09T13:57:51;21.60;93.10
17154;DHT22;8692;52.164;7.558;2022-09-09T14:00:21;21.40;94.00
17154;DHT22;8692;52.164;7.558;2022-09-09T14:02:53;21.30;94.50
17154;DHT22;8692;52.164;7.558;2022-09-09T14:05:22;21.30;96.00
17154;DHT22;8692;52.164;7.558;2022-09-09T14:07:50;21.30;96.60
17154;DHT22;8692;52.164;7.558;2022-09-09T14:10:21;21.20;97.30
17154;DHT22;8692;52.164;7.558;2022-09-09T14:12:49;21.20;98.00
17154;DHT22;8692;52.164;7.558;2022-09-09T14:15:20;21.20;98.50
17154;DHT22;8692;52.164;7.558;2022-09-09T14:17:48;21.20;99.70
17154;DHT22;8692;52.164;7.558;2022-09-09T14:20:18;21.10;99.90
17154;DHT22;8692;52.164;7.558;2022-09-09T14:22:46;21.10;99.90
17154;DHT22;8692;52.164;7.558;2022-09-09T14:25:15;21.10;99.90
17154;DHT22;8692;52.164;7.558;2022-09-09T14:27:43;21.00;99.90
17154;DHT22;8692;52.164;7.558;2022-09-09T14:30:15;20.90;99.90
17154;DHT22;8692;52.164;7.558;2022-09-09T14:32:45;20.70;99.90
17154;DHT22;8692;52.164;7.558;2022-09-09T14:35:14;20.60;99.90
17154;DHT22;8692;52.164;7.558;2022-09-09T14:37:47;20.30;99.90
17154;DHT22;8692;52.164;7.558;2022-09-09T14:40:16;20.00;99.90
17154;DHT22;8692;52.164;7.558;2022-09-09T14:42:46;19.90;99.90
17154;DHT22;8692;52.164;7.558;2022-09-09T14:45:16;19.80;99.90
17154;DHT22;8692;52.164;7.558;2022-09-09T14:47:45;19.70;99.90
17154;DHT22;8692;52.164;7.558;2022-09-09T14:50:13;19.60;99.90
17154;DHT22;8692;52.164;7.558;2022-09-09T14:52:41;19.50;99.90
17154;DHT22;8692;52.164;7.558;2022-09-09T14:55:11;19.40;99.90
17154;DHT22;8692;52.164;7.558;2022-09-09T14:57:39;19.40;99.90
17154;DHT22;8692;52.164;7.558;2022-09-09T15:00:09;19.30;99.90
17154;DHT22;8692;52.164;7.558;2022-09-09T15:02:38;19.30;99.90
17154;DHT22;8692;52.164;7.558;2022-09-09T15:05:13;19.30;99.90
17154;DHT22;8692;52.164;7.558;2022-09-09T15:07:41;19.30;99.90
17154;DHT22;8692;52.164;7.558;2022-09-09T15:10:14;19.30;99.90
17154;DHT22;8692;52.164;7.558;2022-09-09T15:12:45;19.30;99.90
17154;DHT22;8692;52.164;7.558;2022-09-09T15:15:13;19.20;99.90
17154;DHT22;8692;52.164;7.558;2022-09-09T15:17:41;19.30;99.90
17154;DHT22;8692;52.164;7.558;2022-09-09T15:20:11;19.30;99.90
17154;DHT22;8692;52.164;7.558;2022-09-09T15:22:41;19.40;99.90
17154;DHT22;8692;52.164;7.558;2022-09-09T15:25:09;19.40;99.90
17154;DHT22;8692;52.164;7.558;2022-09-09T15:27:38;19.40;99.90
17154;DHT22;8692;52.164;7.558;2022-09-09T15:30:10;19.50;99.90
17154;DHT22;8692;52.164;7.558;2022-09-09T15:32:38;19.70;99.90
17154;DHT22;8692;52.164;7.558;2022-09-09T15:35:07;19.80;99.90
17154;DHT22;8692;52.164;7.558;2022-09-09T15:37:35;19.80;99.90
17154;DHT22;8692;52.164;7.558;2022-09-09T15:40:04;19.80;99.90
17154;DHT22;8692;52.164;7.558;2022-09-09T15:42:35;19.90;99.90
17154;DHT22;8692;52.164;7.558;2022-09-09T15:45:06;19.90;99.90
17154;DHT22;8692;52.164;7.558;2022-09-09T15:47:36;19.80;99.90
17154;DHT22;8692;52.164;7.558;2022-09-09T15:50:04;19.80;99.90
17154;DHT22;8692;52.164;7.558;2022-09-09T15:52:33;19.80;99.90
17154;DHT22;8692;52.164;7.558;2022-09-09T15:55:04;19.70;99.90
17154;DHT22;8692;52.164;7.558;2022-09-09T15:57:35;19.60;99.90
17154;DHT22;8692;52.164;7.558;2022-09-09T16:00:06;19.60;99.90
17154;DHT22;8692;52.164;7.558;2022-09-09T16:02:35;19.60;99.90
17154;DHT22;8692;52.164;7.558;2022-09-09T16:05:04;19.60;99.90
17154;DHT22;8692;52.164;7.558;2022-09-09T16:07:35;19.50;99.90
17154;DHT22;8692;52.164;7.558;2022-09-09T16:10:06;19.50;99.90
17154;DHT22;8692;52.164;7.558;2022-09-09T16:12:37;19.50;99.90
17154;DHT22;8692;52.164;7.558;2022-09-09T16:15:08;19.50;99.90
17154;DHT22;8692;52.164;7.558;2022-09-09T16:17:36;19.40;99.90
17154;DHT22;8692;52.164;7.558;2022-09-09T16:20:06;19.30;99.90
17154;DHT22;8692;52.164;7.558;2022-09-09T16:22:35;19.30;99.90
17154;DHT22;8692;52.164;7.558;2022-09-09T16:25:04;19.30;99.90
17154;DHT22;8692;52.164;7.558;2022-09-09T16:27:35;19.30;99.90